sensor_id;sensor_type;location;lat;lon;timestamp;P1;durP1;ratioP1;P2;durP2;ratioP2
7377;SDS011;3730;50.856;12.776;2024-02-28T00:00:50;26.10;;;14.73;;
7377;SDS011;3730;50.856;12.776;2024-02-28T00:03:17;20.20;;;14.40;;
7377;SDS011;3730;50.856;12.776;2024-02-28T00:05:43;19.03;;;13.63;;
7377;SDS011;3730;50.856;12.776;2024-02-28T00:08:10;21.10;;;13.80;;
7377;SDS011;3730;50.856;12.776;2024-02-28T00:10:36;21.23;;;14.37;;
7377;SDS011;3730;50.856;12.776;2024-02-28T00:13:02;20.23;;;13.87;;
7377;SDS011;3730;50.856;12.776;2024-02-28T00:15:28;20.90;;;13.97;;
7377;SDS011;3730;50.856;12.776;2024-02-28T00:17:54;19.90;;;14.23;;
7377;SDS011;3730;50.856;12.776;2024-02-28T00:20:20;18.67;;;13.47;;
7377;SDS011;3730;50.856;12.776;2024-02-28T00:22:46;18.47;;;13.27;;
7377;SDS011;3730;50.856;12.776;2024-02-28T00:25:12;19.23;;;14.03;;
7377;SDS011;3730;50.856;12.776;2024-02-28T00:27:38;19.00;;;13.90;;
7377;SDS011;3730;50.856;12.776;2024-02-28T00:30:05;21.67;;;15.63;;
7377;SDS011;3730;50.856;12.776;2024-02-28T00:32:31;20.43;;;14.20;;
7377;SDS011;3730;50.856;12.776;2024-02-28T00:34:57;21.70;;;14.93;;
7377;SDS011;3730;50.856;12.776;2024-02-28T00:37:23;23.80;;;15.60;;
7377;SDS011;3730;50.856;12.776;2024-02-28T00:39:50;21.00;;;15.03;;
7377;SDS011;3730;50.856;12.776;2024-02-28T00:42:16;26.13;;;15.40;;
7377;SDS011;3730;50.856;12.776;2024-02-28T00:44:42;24.80;;;15.33;;
7377;SDS011;3730;50.856;12.776;2024-02-28T00:47:08;20.53;;;14.50;;
7377;SDS011;3730;50.856;12.776;2024-02-28T00:49:34;25.43;;;15.30;;
7377;SDS011;3730;50.856;12.776;2024-02-28T00:52:00;22.33;;;14.80;;
7377;SDS011;3730;50.856;12.776;2024-02-28T00:54:26;25.87;;;14.93;;
7377;SDS011;3730;50.856;12.776;2024-02-28T00:56:53;26.73;;;15.30;;
7377;SDS011;3730;50.856;12.776;2024-02-28T00:59:18;26.60;;;16.23;;
7377;SDS011;3730;50.856;12.776;2024-02-28T01:01:44;25.77;;;16.00;;
7377;SDS011;3730;50.856;12.776;2024-02-28T01:04:10;27.23;;;16.43;;
7377;SDS011;3730;50.856;12.776;2024-02-28T01:06:37;23.30;;;15.23;;
7377;SDS011;3730;50.856;12.776;2024-02-28T01:09:03;25.50;;;15.53;;
7377;SDS011;3730;50.856;12.776;2024-02-28T01:11:30;28.63;;;16.17;;
7377;SDS011;3730;50.856;12.776;2024-02-28T01:13:55;25.77;;;16.23;;
7377;SDS011;3730;50.856;12.776;2024-02-28T01:16:21;27.27;;;16.60;;
7377;SDS011;3730;50.856;12.776;2024-02-28T01:18:47;23.87;;;16.07;;
7377;SDS011;3730;50.856;12.776;2024-02-28T01:21:13;27.80;;;15.70;;
7377;SDS011;3730;50.856;12.776;2024-02-28T01:23:39;26.00;;;15.63;;
7377;SDS011;3730;50.856;12.776;2024-02-28T01:26:05;27.27;;;15.97;;
7377;SDS011;3730;50.856;12.776;2024-02-28T01:28:31;28.10;;;16.73;;
7377;SDS011;3730;50.856;12.776;2024-02-28T01:30:58;30.33;;;16.90;;
7377;SDS011;3730;50.856;12.776;2024-02-28T01:33:25;26.13;;;16.00;;
7377;SDS011;3730;50.856;12.776;2024-02-28T01:35:51;46.37;;;17.10;;
7377;SDS011;3730;50.856;12.776;2024-02-28T01:38:17;32.40;;;18.27;;
7377;SDS011;3730;50.856;12.776;2024-02-28T01:40:46;26.03;;;17.03;;
7377;SDS011;3730;50.856;12.776;2024-02-28T01:43:12;31.67;;;17.97;;
7377;SDS011;3730;50.856;12.776;2024-02-28T01:45:38;30.77;;;16.87;;
7377;SDS011;3730;50.856;12.776;2024-02-28T01:48:09;24.87;;;15.77;;
7377;SDS011;3730;50.856;12.776;2024-02-28T01:50:36;26.47;;;16.90;;
7377;SDS011;3730;50.856;12.776;2024-02-28T01:53:03;28.47;;;17.60;;
7377;SDS011;3730;50.856;12.776;2024-02-28T01:55:29;28.00;;;17.20;;
7377;SDS011;3730;50.856;12.776;2024-02-28T01:57:55;34.13;;;17.97;;
7377;SDS011;3730;50.856;12.776;2024-02-28T02:00:21;29.07;;;17.60;;
7377;SDS011;3730;50.856;12.776;2024-02-28T02:02:48;28.00;;;16.70;;
7377;SDS011;3730;50.856;12.776;2024-02-28T02:05:14;30.33;;;18.60;;
7377;SDS011;3730;50.856;12.776;2024-02-28T02:07:41;41.00;;;19.17;;
7377;SDS011;3730;50.856;12.776;2024-02-28T02:10:07;30.03;;;18.00;;
7377;SDS011;3730;50.856;12.776;2024-02-28T02:12:37;46.00;;;18.23;;
7377;SDS011;3730;50.856;12.776;2024-02-28T02:15:03;41.03;;;18.67;;
7377;SDS011;3730;50.856;12.776;2024-02-28T02:17:29;54.43;;;18.73;;
7377;SDS011;3730;50.856;12.776;2024-02-28T02:19:55;29.53;;;17.83;;
7377;SDS011;3730;50.856;12.776;2024-02-28T02:22:21;45.93;;;18.57;;
7377;SDS011;3730;50.856;12.776;2024-02-28T02:24:48;25.00;;;18.73;;
7377;SDS011;3730;50.856;12.776;2024-02-28T02:27:14;41.90;;;18.53;;
7377;SDS011;3730;50.856;12.776;2024-02-28T02:29:40;64.30;;;20.33;;
7377;SDS011;3730;50.856;12.776;2024-02-28T02:32:06;32.03;;;18.93;;
7377;SDS011;3730;50.856;12.776;2024-02-28T02:34:32;124.33;;;22.43;;
7377;SDS011;3730;50.856;12.776;2024-02-28T02:36:59;41.07;;;18.40;;
7377;SDS011;3730;50.856;12.776;2024-02-28T02:39:25;59.93;;;19.23;;
7377;SDS011;3730;50.856;12.776;2024-02-28T02:41:51;35.63;;;19.17;;
7377;SDS011;3730;50.856;12.776;2024-02-28T02:44:17;54.07;;;19.93;;
7377;SDS011;3730;50.856;12.776;2024-02-28T02:46:43;44.33;;;19.33;;
7377;SDS011;3730;50.856;12.776;2024-02-28T02:49:09;50.77;;;19.70;;
7377;SDS011;3730;50.856;12.776;2024-02-28T02:51:35;112.33;;;20.63;;
7377;SDS011;3730;50.856;12.776;2024-02-28T02:54:01;118.77;;;20.67;;
7377;SDS011;3730;50.856;12.776;2024-02-28T02:56:27;91.37;;;22.40;;
7377;SDS011;3730;50.856;12.776;2024-02-28T02:58:53;92.00;;;19.73;;
7377;SDS011;3730;50.856;12.776;2024-02-28T03:01:19;74.27;;;19.63;;
7377;SDS011;3730;50.856;12.776;2024-02-28T03:03:45;62.43;;;19.93;;
7377;SDS011;3730;50.856;12.776;2024-02-28T03:06:11;55.10;;;21.10;;
7377;SDS011;3730;50.856;12.776;2024-02-28T03:08:37;35.67;;;17.20;;
7377;SDS011;3730;50.856;12.776;2024-02-28T03:11:03;57.93;;;18.33;;
7377;SDS011;3730;50.856;12.776;2024-02-28T03:13:32;34.67;;;17.77;;
7377;SDS011;3730;50.856;12.776;2024-02-28T03:15:57;40.13;;;16.87;;
7377;SDS011;3730;50.856;12.776;2024-02-28T03:18:24;30.87;;;16.53;;
7377;SDS011;3730;50.856;12.776;2024-02-28T03:20:53;36.27;;;17.00;;
7377;SDS011;3730;50.856;12.776;2024-02-28T03:23:19;31.67;;;16.67;;
7377;SDS011;3730;50.856;12.776;2024-02-28T03:25:45;36.90;;;16.83;;
7377;SDS011;3730;50.856;12.776;2024-02-28T03:28:10;81.83;;;18.30;;
7377;SDS011;3730;50.856;12.776;2024-02-28T03:30:36;65.37;;;18.53;;
7377;SDS011;3730;50.856;12.776;2024-02-28T03:33:02;28.07;;;16.20;;
7377;SDS011;3730;50.856;12.776;2024-02-28T03:35:28;26.20;;;15.57;;
7377;SDS011;3730;50.856;12.776;2024-02-28T03:37:54;38.03;;;16.57;;
7377;SDS011;3730;50.856;12.776;2024-02-28T03:40:20;25.13;;;14.87;;
7377;SDS011;3730;50.856;12.776;2024-02-28T03:42:46;28.57;;;15.83;;
7377;SDS011;3730;50.856;12.776;2024-02-28T03:45:12;95.80;;;16.07;;
7377;SDS011;3730;50.856;12.776;2024-02-28T03:47:38;21.53;;;14.60;;
7377;SDS011;3730;50.856;12.776;2024-02-28T03:50:05;21.63;;;14.47;;
7377;SDS011;3730;50.856;12.776;2024-02-28T03:52:31;37.37;;;15.17;;
7377;SDS011;3730;50.856;12.776;2024-02-28T03:54:57;38.73;;;15.17;;
7377;SDS011;3730;50.856;12.776;2024-02-28T03:57:23;20.00;;;14.03;;
7377;SDS011;3730;50.856;12.776;2024-02-28T03:59:49;21.57;;;14.37;;
7377;SDS011;3730;50.856;12.776;2024-02-28T04:02:15;23.17;;;13.87;;
7377;SDS011;3730;50.856;12.776;2024-02-28T04:04:41;47.83;;;13.80;;
7377;SDS011;3730;50.856;12.776;2024-02-28T04:07:07;162.00;;;17.93;;
7377;SDS011;3730;50.856;12.776;2024-02-28T04:09:33;24.47;;;13.87;;
7377;SDS011;3730;50.856;12.776;2024-02-28T04:11:59;32.87;;;13.97;;
7377;SDS011;3730;50.856;12.776;2024-02-28T04:14:25;49.27;;;14.97;;
7377;SDS011;3730;50.856;12.776;2024-02-28T04:16:51;87.13;;;15.83;;
7377;SDS011;3730;50.856;12.776;2024-02-28T04:19:18;110.63;;;16.77;;
7377;SDS011;3730;50.856;12.776;2024-02-28T04:21:44;19.43;;;12.63;;
7377;SDS011;3730;50.856;12.776;2024-02-28T04:24:10;54.90;;;13.93;;
7377;SDS011;3730;50.856;12.776;2024-02-28T04:26:36;32.00;;;13.10;;
7377;SDS011;3730;50.856;12.776;2024-02-28T04:29:02;38.30;;;13.60;;
7377;SDS011;3730;50.856;12.776;2024-02-28T04:31:30;41.40;;;13.90;;
7377;SDS011;3730;50.856;12.776;2024-02-28T04:33:56;22.10;;;11.60;;
7377;SDS011;3730;50.856;12.776;2024-02-28T04:36:22;30.17;;;12.43;;
7377;SDS011;3730;50.856;12.776;2024-02-28T04:38:48;57.20;;;14.50;;
7377;SDS011;3730;50.856;12.776;2024-02-28T04:41:14;37.97;;;12.60;;
7377;SDS011;3730;50.856;12.776;2024-02-28T04:43:40;39.30;;;13.13;;
7377;SDS011;3730;50.856;12.776;2024-02-28T04:46:07;66.83;;;14.47;;
7377;SDS011;3730;50.856;12.776;2024-02-28T04:48:33;56.13;;;13.47;;
7377;SDS011;3730;50.856;12.776;2024-02-28T04:50:59;28.50;;;13.20;;
7377;SDS011;3730;50.856;12.776;2024-02-28T04:53:27;23.70;;;12.90;;
7377;SDS011;3730;50.856;12.776;2024-02-28T04:55:53;33.50;;;13.20;;
7377;SDS011;3730;50.856;12.776;2024-02-28T04:58:19;36.97;;;12.90;;
7377;SDS011;3730;50.856;12.776;2024-02-28T05:00:45;53.60;;;15.00;;
7377;SDS011;3730;50.856;12.776;2024-02-28T05:03:11;25.10;;;13.40;;
7377;SDS011;3730;50.856;12.776;2024-02-28T05:05:37;44.63;;;14.13;;
7377;SDS011;3730;50.856;12.776;2024-02-28T05:08:04;33.40;;;14.13;;
7377;SDS011;3730;50.856;12.776;2024-02-28T05:10:30;28.60;;;12.87;;
7377;SDS011;3730;50.856;12.776;2024-02-28T05:12:56;34.77;;;12.47;;
7377;SDS011;3730;50.856;12.776;2024-02-28T05:15:22;21.57;;;12.80;;
7377;SDS011;3730;50.856;12.776;2024-02-28T05:17:50;38.87;;;13.07;;
7377;SDS011;3730;50.856;12.776;2024-02-28T05:20:17;32.37;;;13.80;;
7377;SDS011;3730;50.856;12.776;2024-02-28T05:22:43;24.43;;;11.70;;
7377;SDS011;3730;50.856;12.776;2024-02-28T05:25:09;20.97;;;11.83;;
7377;SDS011;3730;50.856;12.776;2024-02-28T05:27:35;18.43;;;12.10;;
7377;SDS011;3730;50.856;12.776;2024-02-28T05:30:01;20.70;;;10.97;;
7377;SDS011;3730;50.856;12.776;2024-02-28T05:32:30;15.57;;;11.17;;
7377;SDS011;3730;50.856;12.776;2024-02-28T05:34:56;18.53;;;11.53;;
7377;SDS011;3730;50.856;12.776;2024-02-28T05:37:22;27.13;;;13.13;;
7377;SDS011;3730;50.856;12.776;2024-02-28T05:39:49;15.73;;;11.00;;
7377;SDS011;3730;50.856;12.776;2024-02-28T05:42:15;19.80;;;10.97;;
7377;SDS011;3730;50.856;12.776;2024-02-28T05:44:46;18.57;;;10.23;;
7377;SDS011;3730;50.856;12.776;2024-02-28T05:47:13;14.50;;;9.80;;
7377;SDS011;3730;50.856;12.776;2024-02-28T05:49:38;15.07;;;9.33;;
7377;SDS011;3730;50.856;12.776;2024-02-28T05:52:05;15.30;;;9.10;;
7377;SDS011;3730;50.856;12.776;2024-02-28T05:54:31;16.00;;;9.37;;
7377;SDS011;3730;50.856;12.776;2024-02-28T05:56:59;19.83;;;10.60;;
7377;SDS011;3730;50.856;12.776;2024-02-28T05:59:25;19.33;;;10.77;;
7377;SDS011;3730;50.856;12.776;2024-02-28T06:01:51;19.17;;;10.93;;
7377;SDS011;3730;50.856;12.776;2024-02-28T06:04:17;21.47;;;10.97;;
7377;SDS011;3730;50.856;12.776;2024-02-28T06:06:43;24.57;;;11.53;;
7377;SDS011;3730;50.856;12.776;2024-02-28T06:09:10;24.70;;;12.57;;
7377;SDS011;3730;50.856;12.776;2024-02-28T06:11:36;20.23;;;12.30;;
7377;SDS011;3730;50.856;12.776;2024-02-28T06:14:02;28.17;;;13.37;;
7377;SDS011;3730;50.856;12.776;2024-02-28T06:16:29;24.27;;;12.40;;
7377;SDS011;3730;50.856;12.776;2024-02-28T06:18:55;28.40;;;13.20;;
7377;SDS011;3730;50.856;12.776;2024-02-28T06:21:21;22.87;;;13.20;;
7377;SDS011;3730;50.856;12.776;2024-02-28T06:23:48;26.20;;;13.57;;
7377;SDS011;3730;50.856;12.776;2024-02-28T06:26:14;67.63;;;14.87;;
7377;SDS011;3730;50.856;12.776;2024-02-28T06:28:42;23.23;;;14.10;;
7377;SDS011;3730;50.856;12.776;2024-02-28T06:31:16;39.17;;;14.17;;
7377;SDS011;3730;50.856;12.776;2024-02-28T06:33:45;231.33;;;25.13;;
7377;SDS011;3730;50.856;12.776;2024-02-28T06:36:11;216.07;;;23.87;;
7377;SDS011;3730;50.856;12.776;2024-02-28T06:38:37;53.63;;;19.93;;
7377;SDS011;3730;50.856;12.776;2024-02-28T06:41:04;201.50;;;24.90;;
7377;SDS011;3730;50.856;12.776;2024-02-28T06:43:33;459.03;;;32.37;;
7377;SDS011;3730;50.856;12.776;2024-02-28T06:46:00;381.70;;;31.90;;
7377;SDS011;3730;50.856;12.776;2024-02-28T06:48:26;151.57;;;25.47;;
7377;SDS011;3730;50.856;12.776;2024-02-28T06:50:52;193.40;;;25.90;;
7377;SDS011;3730;50.856;12.776;2024-02-28T06:53:18;71.67;;;23.23;;
7377;SDS011;3730;50.856;12.776;2024-02-28T06:55:44;73.03;;;23.90;;
7377;SDS011;3730;50.856;12.776;2024-02-28T06:58:13;431.17;;;33.43;;
7377;SDS011;3730;50.856;12.776;2024-02-28T07:00:39;73.03;;;23.43;;
7377;SDS011;3730;50.856;12.776;2024-02-28T07:03:05;89.17;;;23.53;;
7377;SDS011;3730;50.856;12.776;2024-02-28T07:05:32;94.17;;;26.07;;
7377;SDS011;3730;50.856;12.776;2024-02-28T07:07:58;87.50;;;24.77;;
7377;SDS011;3730;50.856;12.776;2024-02-28T07:10:24;61.47;;;26.20;;
7377;SDS011;3730;50.856;12.776;2024-02-28T07:12:50;119.73;;;26.83;;
7377;SDS011;3730;50.856;12.776;2024-02-28T07:15:16;126.63;;;31.60;;
7377;SDS011;3730;50.856;12.776;2024-02-28T07:17:46;171.40;;;30.43;;
7377;SDS011;3730;50.856;12.776;2024-02-28T07:20:12;105.50;;;26.80;;
7377;SDS011;3730;50.856;12.776;2024-02-28T07:22:38;191.37;;;29.63;;
7377;SDS011;3730;50.856;12.776;2024-02-28T07:25:04;64.10;;;26.00;;
7377;SDS011;3730;50.856;12.776;2024-02-28T07:27:32;136.27;;;27.83;;
7377;SDS011;3730;50.856;12.776;2024-02-28T07:29:58;60.57;;;26.77;;
7377;SDS011;3730;50.856;12.776;2024-02-28T07:32:24;151.33;;;31.40;;
7377;SDS011;3730;50.856;12.776;2024-02-28T07:34:50;159.37;;;31.47;;
7377;SDS011;3730;50.856;12.776;2024-02-28T07:37:16;100.07;;;29.43;;
7377;SDS011;3730;50.856;12.776;2024-02-28T07:39:42;84.83;;;29.23;;
7377;SDS011;3730;50.856;12.776;2024-02-28T07:42:08;216.93;;;31.77;;
7377;SDS011;3730;50.856;12.776;2024-02-28T07:44:34;102.20;;;29.90;;
7377;SDS011;3730;50.856;12.776;2024-02-28T07:47:00;121.63;;;30.43;;
7377;SDS011;3730;50.856;12.776;2024-02-28T07:49:26;133.47;;;31.50;;
7377;SDS011;3730;50.856;12.776;2024-02-28T07:51:52;429.37;;;45.03;;
7377;SDS011;3730;50.856;12.776;2024-02-28T07:54:18;78.83;;;30.77;;
7377;SDS011;3730;50.856;12.776;2024-02-28T07:56:44;90.43;;;31.23;;
7377;SDS011;3730;50.856;12.776;2024-02-28T07:59:10;191.70;;;33.47;;
7377;SDS011;3730;50.856;12.776;2024-02-28T08:01:36;258.70;;;37.80;;
7377;SDS011;3730;50.856;12.776;2024-02-28T08:04:04;106.53;;;30.00;;
7377;SDS011;3730;50.856;12.776;2024-02-28T08:06:30;260.80;;;32.90;;
7377;SDS011;3730;50.856;12.776;2024-02-28T08:08:58;129.90;;;31.30;;
7377;SDS011;3730;50.856;12.776;2024-02-28T08:11:24;86.57;;;27.80;;
7377;SDS011;3730;50.856;12.776;2024-02-28T08:13:50;73.80;;;28.07;;
7377;SDS011;3730;50.856;12.776;2024-02-28T08:16:17;103.17;;;29.93;;
7377;SDS011;3730;50.856;12.776;2024-02-28T08:18:43;44.63;;;23.27;;
7377;SDS011;3730;50.856;12.776;2024-02-28T08:21:09;49.40;;;24.87;;
7377;SDS011;3730;50.856;12.776;2024-02-28T08:23:35;137.17;;;26.27;;
7377;SDS011;3730;50.856;12.776;2024-02-28T08:26:01;82.37;;;24.90;;
7377;SDS011;3730;50.856;12.776;2024-02-28T08:28:28;51.40;;;23.57;;
7377;SDS011;3730;50.856;12.776;2024-02-28T08:30:54;102.60;;;24.30;;
7377;SDS011;3730;50.856;12.776;2024-02-28T08:33:20;60.97;;;23.23;;
7377;SDS011;3730;50.856;12.776;2024-02-28T08:35:46;118.67;;;24.57;;
7377;SDS011;3730;50.856;12.776;2024-02-28T08:38:15;56.00;;;21.87;;
7377;SDS011;3730;50.856;12.776;2024-02-28T08:40:41;52.03;;;22.40;;
7377;SDS011;3730;50.856;12.776;2024-02-28T08:43:07;70.93;;;21.50;;
7377;SDS011;3730;50.856;12.776;2024-02-28T08:45:33;43.93;;;19.57;;
7377;SDS011;3730;50.856;12.776;2024-02-28T08:47:59;35.50;;;20.07;;
7377;SDS011;3730;50.856;12.776;2024-02-28T08:50:26;55.20;;;22.07;;
7377;SDS011;3730;50.856;12.776;2024-02-28T08:52:53;60.60;;;21.63;;
7377;SDS011;3730;50.856;12.776;2024-02-28T08:55:19;39.80;;;19.60;;
7377;SDS011;3730;50.856;12.776;2024-02-28T08:57:46;53.67;;;20.43;;
7377;SDS011;3730;50.856;12.776;2024-02-28T09:00:12;33.07;;;19.20;;
7377;SDS011;3730;50.856;12.776;2024-02-28T09:02:40;37.97;;;20.40;;
7377;SDS011;3730;50.856;12.776;2024-02-28T09:05:06;47.73;;;19.33;;
7377;SDS011;3730;50.856;12.776;2024-02-28T09:07:34;39.97;;;19.90;;
7377;SDS011;3730;50.856;12.776;2024-02-28T09:10:02;34.23;;;19.40;;
7377;SDS011;3730;50.856;12.776;2024-02-28T09:12:29;39.50;;;18.90;;
7377;SDS011;3730;50.856;12.776;2024-02-28T09:14:55;33.20;;;17.87;;
7377;SDS011;3730;50.856;12.776;2024-02-28T09:17:22;34.47;;;18.50;;
7377;SDS011;3730;50.856;12.776;2024-02-28T09:19:48;41.50;;;18.43;;
7377;SDS011;3730;50.856;12.776;2024-02-28T09:22:14;33.67;;;18.03;;
7377;SDS011;3730;50.856;12.776;2024-02-28T09:24:42;34.87;;;17.17;;
7377;SDS011;3730;50.856;12.776;2024-02-28T09:27:08;31.97;;;17.77;;
7377;SDS011;3730;50.856;12.776;2024-02-28T09:29:34;29.03;;;17.33;;
7377;SDS011;3730;50.856;12.776;2024-02-28T09:32:00;28.23;;;16.63;;
7377;SDS011;3730;50.856;12.776;2024-02-28T09:34:26;30.57;;;17.73;;
7377;SDS011;3730;50.856;12.776;2024-02-28T09:36:52;37.40;;;19.03;;
7377;SDS011;3730;50.856;12.776;2024-02-28T09:39:18;29.93;;;17.30;;
7377;SDS011;3730;50.856;12.776;2024-02-28T09:41:46;30.93;;;18.63;;
7377;SDS011;3730;50.856;12.776;2024-02-28T09:44:14;32.87;;;18.63;;
7377;SDS011;3730;50.856;12.776;2024-02-28T09:46:41;35.83;;;19.77;;
7377;SDS011;3730;50.856;12.776;2024-02-28T09:49:07;37.00;;;20.07;;
7377;SDS011;3730;50.856;12.776;2024-02-28T09:51:35;35.33;;;20.33;;
7377;SDS011;3730;50.856;12.776;2024-02-28T09:54:04;35.57;;;21.33;;
7377;SDS011;3730;50.856;12.776;2024-02-28T09:56:31;39.43;;;21.03;;
7377;SDS011;3730;50.856;12.776;2024-02-28T09:58:57;39.83;;;22.70;;
7377;SDS011;3730;50.856;12.776;2024-02-28T10:01:23;39.93;;;21.90;;
7377;SDS011;3730;50.856;12.776;2024-02-28T10:03:51;40.03;;;21.83;;
7377;SDS011;3730;50.856;12.776;2024-02-28T10:06:18;35.60;;;20.93;;
7377;SDS011;3730;50.856;12.776;2024-02-28T10:08:44;35.00;;;19.90;;
7377;SDS011;3730;50.856;12.776;2024-02-28T10:13:45;37.40;;;22.00;;
7377;SDS011;3730;50.856;12.776;2024-02-28T10:16:11;40.33;;;22.67;;
7377;SDS011;3730;50.856;12.776;2024-02-28T10:18:37;39.80;;;23.33;;
7377;SDS011;3730;50.856;12.776;2024-02-28T10:21:03;40.80;;;23.87;;
7377;SDS011;3730;50.856;12.776;2024-02-28T10:23:29;37.93;;;22.73;;
7377;SDS011;3730;50.856;12.776;2024-02-28T10:25:56;36.30;;;21.20;;
7377;SDS011;3730;50.856;12.776;2024-02-28T10:28:22;41.17;;;22.23;;
7377;SDS011;3730;50.856;12.776;2024-02-28T10:30:48;37.57;;;22.50;;
7377;SDS011;3730;50.856;12.776;2024-02-28T10:33:14;35.07;;;20.50;;
7377;SDS011;3730;50.856;12.776;2024-02-28T10:35:41;37.00;;;20.93;;
7377;SDS011;3730;50.856;12.776;2024-02-28T10:38:10;40.57;;;22.57;;
7377;SDS011;3730;50.856;12.776;2024-02-28T10:40:36;42.93;;;23.83;;
7377;SDS011;3730;50.856;12.776;2024-02-28T10:43:02;39.63;;;22.67;;
7377;SDS011;3730;50.856;12.776;2024-02-28T10:45:30;39.57;;;22.27;;
7377;SDS011;3730;50.856;12.776;2024-02-28T10:47:57;38.30;;;20.97;;
7377;SDS011;3730;50.856;12.776;2024-02-28T10:50:23;34.70;;;19.60;;
7377;SDS011;3730;50.856;12.776;2024-02-28T10:52:49;30.77;;;18.80;;
7377;SDS011;3730;50.856;12.776;2024-02-28T10:55:22;36.43;;;21.00;;
7377;SDS011;3730;50.856;12.776;2024-02-28T10:57:50;35.90;;;19.87;;
7377;SDS011;3730;50.856;12.776;2024-02-28T11:00:21;37.17;;;19.67;;
7377;SDS011;3730;50.856;12.776;2024-02-28T11:02:47;44.00;;;26.57;;
7377;SDS011;3730;50.856;12.776;2024-02-28T11:05:14;35.47;;;19.73;;
7377;SDS011;3730;50.856;12.776;2024-02-28T11:07:43;34.43;;;19.23;;
7377;SDS011;3730;50.856;12.776;2024-02-28T11:10:09;33.50;;;19.90;;
7377;SDS011;3730;50.856;12.776;2024-02-28T11:12:35;35.27;;;20.33;;
7377;SDS011;3730;50.856;12.776;2024-02-28T11:15:03;38.33;;;21.43;;
7377;SDS011;3730;50.856;12.776;2024-02-28T11:17:32;32.53;;;19.20;;
7377;SDS011;3730;50.856;12.776;2024-02-28T11:19:58;29.77;;;18.30;;
7377;SDS011;3730;50.856;12.776;2024-02-28T11:22:27;31.90;;;18.70;;
7377;SDS011;3730;50.856;12.776;2024-02-28T11:24:53;29.20;;;17.80;;
7377;SDS011;3730;50.856;12.776;2024-02-28T11:27:20;28.30;;;17.23;;
7377;SDS011;3730;50.856;12.776;2024-02-28T11:29:46;33.23;;;17.87;;
7377;SDS011;3730;50.856;12.776;2024-02-28T11:32:14;28.87;;;16.87;;
7377;SDS011;3730;50.856;12.776;2024-02-28T11:34:40;29.57;;;17.30;;
7377;SDS011;3730;50.856;12.776;2024-02-28T11:37:06;27.87;;;17.23;;
7377;SDS011;3730;50.856;12.776;2024-02-28T11:39:34;28.97;;;17.63;;
7377;SDS011;3730;50.856;12.776;2024-02-28T11:42:11;30.07;;;17.80;;
7377;SDS011;3730;50.856;12.776;2024-02-28T11:44:38;32.30;;;18.33;;
7377;SDS011;3730;50.856;12.776;2024-02-28T11:47:05;32.37;;;17.77;;
7377;SDS011;3730;50.856;12.776;2024-02-28T11:49:32;27.93;;;15.90;;
7377;SDS011;3730;50.856;12.776;2024-02-28T11:51:58;25.43;;;16.03;;
7377;SDS011;3730;50.856;12.776;2024-02-28T11:54:24;27.10;;;16.67;;
7377;SDS011;3730;50.856;12.776;2024-02-28T11:56:50;29.17;;;16.67;;
7377;SDS011;3730;50.856;12.776;2024-02-28T11:59:16;29.03;;;15.57;;
7377;SDS011;3730;50.856;12.776;2024-02-28T12:01:43;27.40;;;15.73;;
7377;SDS011;3730;50.856;12.776;2024-02-28T12:04:09;25.07;;;14.93;;
7377;SDS011;3730;50.856;12.776;2024-02-28T12:06:38;26.20;;;16.93;;
7377;SDS011;3730;50.856;12.776;2024-02-28T12:09:08;29.73;;;16.77;;
7377;SDS011;3730;50.856;12.776;2024-02-28T12:11:35;31.57;;;17.60;;
7377;SDS011;3730;50.856;12.776;2024-02-28T12:14:08;29.43;;;16.50;;
7377;SDS011;3730;50.856;12.776;2024-02-28T12:16:37;17.43;;;10.67;;
7377;SDS011;3730;50.856;12.776;2024-02-28T12:19:08;26.23;;;15.83;;
7377;SDS011;3730;50.856;12.776;2024-02-28T12:21:34;24.83;;;15.20;;
7377;SDS011;3730;50.856;12.776;2024-02-28T12:24:00;24.53;;;14.50;;
7377;SDS011;3730;50.856;12.776;2024-02-28T12:26:27;26.23;;;15.13;;
7377;SDS011;3730;50.856;12.776;2024-02-28T12:28:53;22.07;;;13.37;;
7377;SDS011;3730;50.856;12.776;2024-02-28T12:31:19;24.80;;;14.87;;
7377;SDS011;3730;50.856;12.776;2024-02-28T12:33:46;23.17;;;14.47;;
7377;SDS011;3730;50.856;12.776;2024-02-28T12:36:12;21.23;;;13.43;;
7377;SDS011;3730;50.856;12.776;2024-02-28T12:38:39;19.23;;;12.40;;
7377;SDS011;3730;50.856;12.776;2024-02-28T12:41:06;18.77;;;12.83;;
7377;SDS011;3730;50.856;12.776;2024-02-28T12:43:32;19.27;;;13.43;;
7377;SDS011;3730;50.856;12.776;2024-02-28T12:45:58;21.90;;;13.03;;
7377;SDS011;3730;50.856;12.776;2024-02-28T12:48:24;25.13;;;15.73;;
7377;SDS011;3730;50.856;12.776;2024-02-28T12:50:50;20.87;;;13.43;;
7377;SDS011;3730;50.856;12.776;2024-02-28T12:53:16;19.73;;;12.90;;
7377;SDS011;3730;50.856;12.776;2024-02-28T12:55:42;18.73;;;10.47;;
7377;SDS011;3730;50.856;12.776;2024-02-28T12:58:10;19.53;;;13.10;;
7377;SDS011;3730;50.856;12.776;2024-02-28T13:00:36;18.13;;;12.70;;
7377;SDS011;3730;50.856;12.776;2024-02-28T13:03:02;20.27;;;12.53;;
7377;SDS011;3730;50.856;12.776;2024-02-28T13:05:28;20.20;;;12.57;;
7377;SDS011;3730;50.856;12.776;2024-02-28T13:07:54;19.43;;;11.83;;
7377;SDS011;3730;50.856;12.776;2024-02-28T13:10:20;18.93;;;11.87;;
7377;SDS011;3730;50.856;12.776;2024-02-28T13:12:47;17.73;;;12.23;;
7377;SDS011;3730;50.856;12.776;2024-02-28T13:15:13;19.60;;;13.33;;
7377;SDS011;3730;50.856;12.776;2024-02-28T13:17:39;16.67;;;11.63;;
7377;SDS011;3730;50.856;12.776;2024-02-28T13:20:06;17.83;;;12.43;;
7377;SDS011;3730;50.856;12.776;2024-02-28T13:22:33;17.57;;;12.27;;
7377;SDS011;3730;50.856;12.776;2024-02-28T13:24:59;17.37;;;12.00;;
7377;SDS011;3730;50.856;12.776;2024-02-28T13:27:25;18.47;;;11.70;;
7377;SDS011;3730;50.856;12.776;2024-02-28T13:29:51;16.50;;;11.13;;
7377;SDS011;3730;50.856;12.776;2024-02-28T13:32:17;19.23;;;12.10;;
7377;SDS011;3730;50.856;12.776;2024-02-28T13:34:43;18.30;;;12.50;;
7377;SDS011;3730;50.856;12.776;2024-02-28T13:37:10;19.10;;;12.53;;
7377;SDS011;3730;50.856;12.776;2024-02-28T13:39:36;18.60;;;12.73;;
7377;SDS011;3730;50.856;12.776;2024-02-28T13:42:01;17.53;;;12.37;;
7377;SDS011;3730;50.856;12.776;2024-02-28T13:44:31;17.30;;;12.07;;
7377;SDS011;3730;50.856;12.776;2024-02-28T13:46:57;16.17;;;11.27;;
7377;SDS011;3730;50.856;12.776;2024-02-28T13:49:23;25.70;;;12.03;;
7377;SDS011;3730;50.856;12.776;2024-02-28T13:51:49;19.40;;;12.13;;
7377;SDS011;3730;50.856;12.776;2024-02-28T13:54:16;16.10;;;11.40;;
7377;SDS011;3730;50.856;12.776;2024-02-28T13:56:42;14.80;;;10.77;;
7377;SDS011;3730;50.856;12.776;2024-02-28T13:59:08;20.83;;;12.03;;
7377;SDS011;3730;50.856;12.776;2024-02-28T14:01:34;15.17;;;10.60;;
7377;SDS011;3730;50.856;12.776;2024-02-28T14:04:01;15.47;;;10.63;;
7377;SDS011;3730;50.856;12.776;2024-02-28T14:06:28;14.87;;;10.70;;
7377;SDS011;3730;50.856;12.776;2024-02-28T14:08:55;17.13;;;11.23;;
7377;SDS011;3730;50.856;12.776;2024-02-28T14:11:24;18.03;;;11.03;;
7377;SDS011;3730;50.856;12.776;2024-02-28T14:13:50;15.60;;;11.07;;
7377;SDS011;3730;50.856;12.776;2024-02-28T14:16:16;16.67;;;11.00;;
7377;SDS011;3730;50.856;12.776;2024-02-28T14:18:44;14.70;;;10.27;;
7377;SDS011;3730;50.856;12.776;2024-02-28T14:21:10;15.77;;;10.27;;
7377;SDS011;3730;50.856;12.776;2024-02-28T14:23:36;15.50;;;10.80;;
7377;SDS011;3730;50.856;12.776;2024-02-28T14:26:02;17.30;;;11.20;;
7377;SDS011;3730;50.856;12.776;2024-02-28T14:28:28;17.90;;;11.63;;
7377;SDS011;3730;50.856;12.776;2024-02-28T14:30:54;19.67;;;11.23;;